Breeze Hill, South Carolina
Current Conditions -  °F | °C
As of 5:53 PM on Thursday 20 Nov 2014 (Local Time) from KDNL Reporting Station
Clear Clear  
Wind Chill: 59°   Ceiling: Unl
Heat Index: 59°   Visibility: 10mi
Dew Point: 35°   Wind: 0mph
Humidity: 41%   Direction: NA
Pressure: 30.16"   Gusts: NA
Location:  33.5159°N, 81.8379°W
Report Text: KDNL 202253Z AUTO 00000KT 10SM CLR 15/02 A3016 RMK AO2 SLP212 T01500017
Loading
Personal Weather Stations






























Interactive Weather Map New forecast layout! Learn more

10-Day Weather Forecast

Advertisements
Track Severe Weather on mobile